Frederick, Colorado
Current Conditions -  °F | °C
As of 11:35 AM on Saturday 25 Oct 2014 (Local Time) from KEIK Reporting Station
Clear Clear  
Wind Chill: 75°   Ceiling: Unl
Heat Index: 75°   Visibility: 10mi
Dew Point: 17°   Wind: 9mph
Humidity: 11%   Direction: 190°S
Pressure: 30.21"   Gusts: NA
Location:  40.1°N, 104.94°W
Report Text: KEIK 251735Z AUTO 19008KT 10SM CLR 24/M08 A3021 RMK AO2 T02371082
Loading
Personal Weather Stations






























Interactive Weather Map
Tropical Storm Tracking
New forecast layout! Learn more

10-Day Weather Forecast

Advertisements
Track Severe Weather on mobile